Time;durP1;ratioP1;P1;durP2;ratioP2;P2;SDS_P1;SDS_P2;PMS_P1;PMS_P2;Temp;Humidity;BMP_temperature;BMP_pressure;BME280_temperature;BME280_humidity;BME280_pressure;Samples;Min_cycle;Max_cycle;Signal;HPM_P1;HPM_P2
2022/12/11 00:00:49;;;;;;;24;15.1;;;;;;;;;;;;;
2022/12/11 00:03:17;;;;;;;24.4;15.4;;;;;;;;;;;;;
2022/12/11 00:05:43;;;;;;;23.3;15.8;;;;;;;;;;;;;
2022/12/11 00:08:16;;;;;;;24.1;16.2;;;;;;;;;;;;;
2022/12/11 00:10:45;;;;;;;22.6;15.3;;;;;;;;;;;;;
2022/12/11 00:13:14;;;;;;;19.1;12.9;;;;;;;;;;;;;
2022/12/11 00:15:43;;;;;;;19.5;13.9;;;;;;;;;;;;;
2022/12/11 00:18:12;;;;;;;21.5;14.4;;;;;;;;;;;;;
2022/12/11 00:20:41;;;;;;;20.6;14.3;;;;;;;;;;;;;
2022/12/11 00:23:18;;;;;;;21.7;14.9;;;;;;;;;;;;;
2022/12/11 00:25:47;;;;;;;19.5;13.4;;;;;;;;;;;;;
2022/12/11 00:28:16;;;;;;;20.6;13.5;;;;;;;;;;;;;
2022/12/11 00:30:46;;;;;;;19.3;13.6;;;;;;;;;;;;;
2022/12/11 00:33:14;;;;;;;21;14.8;;;;;;;;;;;;;
2022/12/11 00:35:39;;;;;;;20.9;14.4;;;;;;;;;;;;;
2022/12/11 00:38:06;;;;;;;18.8;13.4;;;;;;;;;;;;;
2022/12/11 00:40:32;;;;;;;20;13.2;;;;;;;;;;;;;
2022/12/11 00:42:57;;;;;;;21.3;14.2;;;;;;;;;;;;;
2022/12/11 00:45:22;;;;;;;20;13.5;;;;;;;;;;;;;
2022/12/11 00:47:49;;;;;;;19.3;13.7;;;;;;;;;;;;;
2022/12/11 00:50:14;;;;;;;20.5;14.5;;;;;;;;;;;;;
2022/12/11 00:52:42;;;;;;;19.7;13.4;;;;;;;;;;;;;
2022/12/11 00:55:07;;;;;;;20.7;13.8;;;;;;;;;;;;;
2022/12/11 00:57:32;;;;;;;19.8;14.1;;;;;;;;;;;;;
2022/12/11 00:59:59;;;;;;;20.5;13.9;;;;;;;;;;;;;
2022/12/11 01:02:24;;;;;;;23.2;14.8;;;;;;;;;;;;;
2022/12/11 01:04:50;;;;;;;19.9;14.4;;;;;;;;;;;;;
2022/12/11 01:07:15;;;;;;;20.7;14.3;;;;;;;;;;;;;
2022/12/11 01:12:06;;;;;;;22.4;15.3;;;;;;;;;;;;;
2022/12/11 01:14:31;;;;;;;21.8;14.9;;;;;;;;;;;;;
2022/12/11 01:16:56;;;;;;;22.1;15.2;;;;;;;;;;;;;
2022/12/11 01:19:21;;;;;;;23.3;14.7;;;;;;;;;;;;;
2022/12/11 01:21:46;;;;;;;22.8;14.9;;;;;;;;;;;;;
2022/12/11 01:24:11;;;;;;;20.8;14.5;;;;;;;;;;;;;
2022/12/11 01:26:37;;;;;;;20.6;14.1;;;;;;;;;;;;;
2022/12/11 01:29:02;;;;;;;20;14.6;;;;;;;;;;;;;
2022/12/11 01:31:27;;;;;;;22.2;14.2;;;;;;;;;;;;;
2022/12/11 01:33:53;;;;;;;20.9;13.9;;;;;;;;;;;;;
2022/12/11 01:36:18;;;;;;;20;13.8;;;;;;;;;;;;;
2022/12/11 01:38:43;;;;;;;21;13.8;;;;;;;;;;;;;
2022/12/11 01:41:09;;;;;;;19.3;13.4;;;;;;;;;;;;;
2022/12/11 01:43:36;;;;;;;21.2;14;;;;;;;;;;;;;
2022/12/11 01:47:15;;;;;;;20.5;14.3;;;;;;;;;;;;;
2022/12/11 01:49:40;;;;;;;18.6;13.3;;;;;;;;;;;;;
2022/12/11 01:52:06;;;;;;;16.4;11.5;;;;;;;;;;;;;
2022/12/11 01:54:32;;;;;;;15.7;10.6;;;;;;;;;;;;;
2022/12/11 01:56:57;;;;;;;15.7;10.4;;;;;;;;;;;;;
2022/12/11 01:59:22;;;;;;;15.5;9.8;;;;;;;;;;;;;
2022/12/11 02:01:49;;;;;;;13.9;10;;;;;;;;;;;;;
2022/12/11 02:04:15;;;;;;;10.7;7.9;;;;;;;;;;;;;
2022/12/11 02:06:41;;;;;;;11.6;8.1;;;;;;;;;;;;;
2022/12/11 02:09:06;;;;;;;12.5;7.8;;;;;;;;;;;;;
2022/12/11 02:11:33;;;;;;;10.9;7.9;;;;;;;;;;;;;
2022/12/11 02:13:58;;;;;;;10.5;7;;;;;;;;;;;;;
2022/12/11 02:16:23;;;;;;;10.9;7.4;;;;;;;;;;;;;
2022/12/11 02:18:48;;;;;;;9.3;6.4;;;;;;;;;;;;;
2022/12/11 02:21:14;;;;;;;10.3;6.9;;;;;;;;;;;;;
2022/12/11 02:23:39;;;;;;;8.2;6.2;;;;;;;;;;;;;
2022/12/11 02:26:04;;;;;;;8.4;6.1;;;;;;;;;;;;;
2022/12/11 02:28:29;;;;;;;7.6;5.9;;;;;;;;;;;;;
2022/12/11 02:30:57;;;;;;;8;6.1;;;;;;;;;;;;;
2022/12/11 02:33:22;;;;;;;8.8;6.4;;;;;;;;;;;;;
2022/12/11 02:35:51;;;;;;;7.8;6.1;;;;;;;;;;;;;
2022/12/11 02:38:16;;;;;;;9.1;6.6;;;;;;;;;;;;;
2022/12/11 02:40:41;;;;;;;9.3;6.5;;;;;;;;;;;;;
2022/12/11 02:43:06;;;;;;;8.9;6.5;;;;;;;;;;;;;
2022/12/11 02:45:32;;;;;;;10.5;6.5;;;;;;;;;;;;;
2022/12/11 02:47:57;;;;;;;7.7;6.2;;;;;;;;;;;;;
2022/12/11 02:50:23;;;;;;;10.1;7.1;;;;;;;;;;;;;
2022/12/11 02:52:48;;;;;;;10.3;7.1;;;;;;;;;;;;;
2022/12/11 02:55:17;;;;;;;9.6;7.1;;;;;;;;;;;;;
2022/12/11 02:57:42;;;;;;;11.4;8;;;;;;;;;;;;;
2022/12/11 03:00:10;;;;;;;12.1;7.4;;;;;;;;;;;;;
2022/12/11 03:02:36;;;;;;;11;7.3;;;;;;;;;;;;;
2022/12/11 03:05:01;;;;;;;11.4;7.8;;;;;;;;;;;;;
2022/12/11 03:07:26;;;;;;;11.5;8.2;;;;;;;;;;;;;
2022/12/11 03:09:53;;;;;;;11.2;7.9;;;;;;;;;;;;;
2022/12/11 03:12:18;;;;;;;12.9;8.4;;;;;;;;;;;;;
2022/12/11 03:14:44;;;;;;;12.6;9;;;;;;;;;;;;;
2022/12/11 03:17:09;;;;;;;11.9;8.6;;;;;;;;;;;;;
2022/12/11 03:19:34;;;;;;;12.5;8.3;;;;;;;;;;;;;
2022/12/11 03:21:59;;;;;;;10.4;7.7;;;;;;;;;;;;;
2022/12/11 03:24:27;;;;;;;12.2;8.9;;;;;;;;;;;;;
2022/12/11 03:26:52;;;;;;;13.5;9.1;;;;;;;;;;;;;
2022/12/11 03:29:17;;;;;;;12.7;9;;;;;;;;;;;;;
2022/12/11 03:31:42;;;;;;;12.8;9.2;;;;;;;;;;;;;
2022/12/11 03:34:08;;;;;;;13.9;9.5;;;;;;;;;;;;;
2022/12/11 03:36:33;;;;;;;12.6;9.3;;;;;;;;;;;;;
2022/12/11 03:38:58;;;;;;;14.5;10;;;;;;;;;;;;;
2022/12/11 03:41:24;;;;;;;14.6;9.8;;;;;;;;;;;;;
2022/12/11 03:43:51;;;;;;;14.8;10.4;;;;;;;;;;;;;
2022/12/11 03:46:16;;;;;;;14.3;10.3;;;;;;;;;;;;;
2022/12/11 03:48:45;;;;;;;14.8;10.5;;;;;;;;;;;;;
2022/12/11 03:51:10;;;;;;;15.6;10.6;;;;;;;;;;;;;
2022/12/11 03:53:36;;;;;;;15.5;10.5;;;;;;;;;;;;;
2022/12/11 03:56:01;;;;;;;15.1;10.1;;;;;;;;;;;;;
2022/12/11 03:58:26;;;;;;;16.4;11.2;;;;;;;;;;;;;
2022/12/11 04:02:38;;;;;;;15.4;10.6;;;;;;;-1.28;86.57813;928.5798;;;;
2022/12/11 04:05:03;;;;;;;15.2;10.6;;;;;;;-1.18;86.67871;928.5691;;;;
2022/12/11 04:07:30;;;;;;;15.3;10.3;;;;;;;-1.15;86.35059;928.56;;;;
2022/12/11 04:09:54;;;;;;;13.5;9.7;;;;;;;-1.24;86.46582;928.5539;;;;
2022/12/11 04:12:20;;;;;;;14.7;9.8;;;;;;;-1.3;86.90918;928.558;;;;
2022/12/11 04:15:02;;;;;;;15;10;;;;;;;-1.27;86.22852;928.5115;;;;
2022/12/11 04:24:13;;;;;;;13.8;9.6;;;;;;;-1.17;86.03809;928.5446;;;;
2022/12/11 04:24:30;;;;;;;14.8;9.9;;;;;;;-1.23;85.79199;928.3914;;;;
2022/12/11 04:26:55;;;;;;;15.2;10.1;;;;;;;-1.35;85.83203;928.4523;;;;
2022/12/11 04:29:20;;;;;;;14.3;10.2;;;;;;;-1.5;85.94531;928.4494;;;;
2022/12/11 04:31:49;;;;;;;14.5;10.5;;;;;;;-1.43;85.95996;928.4825;;;;
2022/12/11 04:34:13;;;;;;;16;10;;;;;;;-1.27;85.62695;928.4606;;;;
2022/12/11 04:36:43;;;;;;;14.7;10.1;;;;;;;-1.21;85.41797;928.4459;;;;
2022/12/11 04:39:08;;;;;;;12.8;9.3;;;;;;;-1.32;85.45996;928.4119;;;;
2022/12/11 04:41:40;;;;;;;14.8;10.2;;;;;;;-1.33;85.45898;928.3142;;;;
2022/12/11 04:44:33;;;;;;;13.8;9.6;;;;;;;-1.23;85.25879;928.4069;;;;
2022/12/11 04:47:03;;;;;;;14.8;10.1;;;;;;;-1.2;85.2959;928.5413;;;;
2022/12/11 04:49:28;;;;;;;14.4;9.9;;;;;;;-1.13;85.26563;928.4802;;;;
2022/12/11 04:51:57;;;;;;;14.8;10.4;;;;;;;-1.15;85.20605;928.5325;;;;
2022/12/11 04:54:22;;;;;;;16.2;10.9;;;;;;;-1.22;85.58203;928.5517;;;;
2022/12/11 04:56:50;;;;;;;15.4;10.3;;;;;;;-1.22;85.62695;928.5338;;;;
2022/12/11 04:59:15;;;;;;;15.9;11;;;;;;;-1.14;85.69922;928.5597;;;;
2022/12/11 05:01:45;;;;;;;17.3;11.2;;;;;;;-1.21;86.09473;928.4506;;;;
2022/12/11 05:04:10;;;;;;;16.3;11.1;;;;;;;-1.13;85.91211;928.3976;;;;
2022/12/11 05:06:41;;;;;;;16.3;10.9;;;;;;;-1.16;86.42676;928.4722;;;;
2022/12/11 05:09:06;;;;;;;15.7;11.4;;;;;;;-1.12;85.91211;928.4547;;;;
2022/12/11 05:11:34;;;;;;;16;11.2;;;;;;;-1.01;85.85645;928.4235;;;;
2022/12/11 05:13:59;;;;;;;16.6;11.7;;;;;;;-0.99;85.60645;928.4481;;;;
2022/12/11 05:16:24;;;;;;;16;11.5;;;;;;;-1.04;85.65234;928.3672;;;;
2022/12/11 05:18:52;;;;;;;15.4;11.2;;;;;;;-1.04;85.61914;928.375;;;;
2022/12/11 05:21:17;;;;;;;16.2;11.5;;;;;;;-1.04;85.69531;928.3005;;;;
2022/12/11 05:24:15;;;;;;;15.5;11.2;;;;;;;-0.99;85.75098;928.3622;;;;
2022/12/11 05:26:45;;;;;;;16.6;12.4;;;;;;;-1.19;86.00977;928.4796;;;;
2022/12/11 05:29:11;;;;;;;16.3;11.6;;;;;;;-1.1;86.31738;928.4143;;;;
2022/12/11 05:31:41;;;;;;;18.2;11.5;;;;;;;-1.14;86.28613;928.3868;;;;
2022/12/11 05:34:11;;;;;;;17.1;11.6;;;;;;;-1.08;86.36523;928.358;;;;
2022/12/11 05:40:03;;;;;;;17.3;11.3;;;;;;;-1.49;87.40137;928.3561;;;;
2022/12/11 05:42:31;;;;;;;16.6;11.3;;;;;;;-1.34;87.35547;928.4456;;;;
2022/12/11 05:50:53;;;;;;;16.3;11.2;;;;;;;-1.54;88.08008;928.3864;;;;
2022/12/11 05:53:24;;;;;;;15.7;10.9;;;;;;;-1.57;88.24121;928.4846;;;;
2022/12/11 05:55:55;;;;;;;16.4;11.1;;;;;;;-1.43;87.97852;928.4036;;;;
2022/12/11 05:58:20;;;;;;;14.5;10.6;;;;;;;-1.36;87.5625;928.3535;;;;
2022/12/11 06:00:47;;;;;;;17.8;11.7;;;;;;;-1.26;87.38379;928.3184;;;;
2022/12/11 06:03:13;;;;;;;15.9;10.8;;;;;;;-1.17;87.01367;928.3359;;;;
2022/12/11 06:05:37;;;;;;;16.6;11;;;;;;;-1.22;86.79297;928.2949;;;;
2022/12/11 06:08:03;;;;;;;16;11.4;;;;;;;-1.13;86.7207;928.2827;;;;
2022/12/11 06:14:07;;;;;;;17.8;12.1;;;;;;;-1.27;87.12793;928.3055;;;;
2022/12/11 06:16:38;;;;;;;16.5;11.7;;;;;;;-1.26;87.09473;928.2291;;;;
2022/12/11 06:19:06;;;;;;;17.8;12;;;;;;;-1.21;86.9834;928.1959;;;;
2022/12/11 06:21:32;;;;;;;16.9;11.9;;;;;;;-1.32;87.33887;928.2068;;;;
2022/12/11 06:23:57;;;;;;;17;12.2;;;;;;;-1.29;87.07813;928.1368;;;;
2022/12/11 06:26:24;;;;;;;17.4;12.3;;;;;;;-1.35;87.32031;928.1433;;;;
2022/12/11 06:28:50;;;;;;;17.7;12.8;;;;;;;-1.43;87.71191;928.1725;;;;
2022/12/11 06:31:16;;;;;;;19.8;12.7;;;;;;;-1.39;87.99023;928.1549;;;;
2022/12/11 06:33:41;;;;;;;19.2;12.9;;;;;;;-1.41;88.13965;928.1305;;;;
2022/12/11 06:36:12;;;;;;;18.7;13;;;;;;;-1.42;88.11719;928.1669;;;;
2022/12/11 06:38:44;;;;;;;19.4;12.6;;;;;;;-1.31;87.92773;928.1749;;;;
2022/12/11 06:41:13;;;;;;;18.2;12.7;;;;;;;-1.24;87.48926;928.1958;;;;
2022/12/11 06:43:38;;;;;;;19.6;12.7;;;;;;;-1.29;87.05371;928.2537;;;;
2022/12/11 06:46:08;;;;;;;17.1;12.8;;;;;;;-1.34;87.13379;928.2332;;;;
2022/12/11 06:48:39;;;;;;;17.1;11.9;;;;;;;-1.32;86.88184;928.2737;;;;
2022/12/11 06:51:07;;;;;;;17;12.1;;;;;;;-1.36;86.84082;928.2667;;;;
2022/12/11 06:53:31;;;;;;;18.9;12.5;;;;;;;-1.34;86.72266;928.3333;;;;
2022/12/11 06:56:02;;;;;;;17.2;11.9;;;;;;;-1.29;86.75586;928.3873;;;;
2022/12/11 06:58:27;;;;;;;18.6;12.1;;;;;;;-1.22;86.22461;928.4359;;;;
2022/12/11 07:00:55;;;;;;;19.1;12.4;;;;;;;-1.29;85.49902;928.4692;;;;
2022/12/11 07:03:21;;;;;;;16.3;11.7;;;;;;;-1.57;85.48828;928.4283;;;;
2022/12/11 07:05:49;;;;;;;18.1;12.6;;;;;;;-1.5;85.60352;928.423;;;;
2022/12/11 07:08:21;;;;;;;15.9;11.9;;;;;;;-1.59;85.73828;928.4407;;;;
2022/12/11 07:10:46;;;;;;;17.7;11.7;;;;;;;-1.48;85.2627;928.4534;;;;
2022/12/11 07:13:14;;;;;;;17;11.7;;;;;;;-1.4;84.8125;928.4295;;;;
2022/12/11 07:15:41;;;;;;;17.1;11.6;;;;;;;-1.32;84.47363;928.4246;;;;
2022/12/11 07:18:06;;;;;;;13.9;10.4;;;;;;;-1.3;83.7334;928.4394;;;;
2022/12/11 07:20:37;;;;;;;14.2;9.5;;;;;;;-1.29;83.28906;928.4473;;;;
2022/12/11 07:23:02;;;;;;;13.7;9.9;;;;;;;-1.24;82.82227;928.468;;;;
2022/12/11 07:25:27;;;;;;;11.2;8.1;;;;;;;-1.35;81.75684;928.371;;;;
2022/12/11 07:27:56;;;;;;;11.2;7.4;;;;;;;-1.48;81.07617;928.6141;;;;
2022/12/11 07:30:20;;;;;;;11.8;8.3;;;;;;;-1.59;82.20898;928.6325;;;;
2022/12/11 07:32:48;;;;;;;10.8;7.6;;;;;;;-1.53;81.88867;928.5803;;;;
2022/12/11 07:35:13;;;;;;;11.1;8.4;;;;;;;-1.38;81.87402;928.5668;;;;
2022/12/11 07:37:43;;;;;;;11.9;9;;;;;;;-1.7;82.04395;928.6421;;;;
2022/12/11 07:40:12;;;;;;;13.2;8.9;;;;;;;-1.62;82.59277;928.5842;;;;
2022/12/11 07:42:37;;;;;;;13.4;9.5;;;;;;;-1.57;82.34766;928.567;;;;
2022/12/11 07:45:06;;;;;;;14.1;8.8;;;;;;;-1.73;82.7168;928.5709;;;;
2022/12/11 07:47:34;;;;;;;11.8;8.8;;;;;;;-1.7;82.72266;928.5003;;;;
2022/12/11 07:49:59;;;;;;;12.6;9;;;;;;;-1.67;82.29492;928.4459;;;;
2022/12/11 07:52:28;;;;;;;13.8;9.7;;;;;;;-1.81;83.05469;928.5784;;;;
2022/12/11 07:54:53;;;;;;;11.7;8.7;;;;;;;;;;;;;
2022/12/11 07:57:18;;;;;;;12.8;9.2;;;;;;;;;;;;;
2022/12/11 07:59:43;;;;;;;14.8;10.5;;;;;;;;;;;;;
2022/12/11 08:02:09;;;;;;;14.3;9.8;;;;;;;;;;;;;
2022/12/11 08:04:34;;;;;;;14.9;10.1;;;;;;;;;;;;;
2022/12/11 08:07:01;;;;;;;13.3;9;;;;;;;;;;;;;
2022/12/11 08:09:26;;;;;;;12.8;8.6;;;;;;;;;;;;;
2022/12/11 08:11:52;;;;;;;13.4;9.4;;;;;;;;;;;;;
2022/12/11 08:14:17;;;;;;;14.2;9.5;;;;;;;;;;;;;
2022/12/11 08:16:43;;;;;;;12.5;9.4;;;;;;;;;;;;;
2022/12/11 08:19:09;;;;;;;14.1;9.3;;;;;;;;;;;;;
2022/12/11 08:21:34;;;;;;;17.7;10.6;;;;;;;;;;;;;
2022/12/11 08:23:59;;;;;;;13.8;9.1;;;;;;;;;;;;;
2022/12/11 08:26:25;;;;;;;13;9.4;;;;;;;;;;;;;
2022/12/11 08:28:50;;;;;;;12.4;8.9;;;;;;;;;;;;;
2022/12/11 08:31:16;;;;;;;14.4;9.1;;;;;;;;;;;;;
2022/12/11 08:33:41;;;;;;;13;9.7;;;;;;;;;;;;;
2022/12/11 08:36:09;;;;;;;13.2;9;;;;;;;;;;;;;
2022/12/11 08:38:34;;;;;;;11.4;8.7;;;;;;;;;;;;;
2022/12/11 08:41:01;;;;;;;12.4;8.7;;;;;;;;;;;;;
2022/12/11 08:43:26;;;;;;;12.2;8.3;;;;;;;;;;;;;
2022/12/11 08:45:54;;;;;;;12.5;7.9;;;;;;;;;;;;;
2022/12/11 08:48:19;;;;;;;11.5;8.3;;;;;;;;;;;;;
2022/12/11 08:50:44;;;;;;;11;7.9;;;;;;;;;;;;;
2022/12/11 08:53:10;;;;;;;10.9;8;;;;;;;;;;;;;
2022/12/11 08:55:36;;;;;;;11.9;8.7;;;;;;;;;;;;;
2022/12/11 08:58:02;;;;;;;11.9;8.6;;;;;;;;;;;;;
2022/12/11 09:00:29;;;;;;;12.2;9;;;;;;;;;;;;;
2022/12/11 09:02:55;;;;;;;12.4;9;;;;;;;;;;;;;
2022/12/11 09:05:21;;;;;;;11.3;8.8;;;;;;;;;;;;;
2022/12/11 09:07:46;;;;;;;11.1;8.1;;;;;;;;;;;;;
2022/12/11 09:10:14;;;;;;;12.9;9.7;;;;;;;;;;;;;
2022/12/11 09:12:39;;;;;;;11.8;8.2;;;;;;;;;;;;;
2022/12/11 09:15:05;;;;;;;13.4;9.7;;;;;;;;;;;;;
2022/12/11 09:17:30;;;;;;;13.7;9.3;;;;;;;;;;;;;
2022/12/11 09:19:57;;;;;;;12.4;9.1;;;;;;;;;;;;;
2022/12/11 09:22:22;;;;;;;11.6;8.7;;;;;;;;;;;;;
2022/12/11 09:24:48;;;;;;;12.3;8.7;;;;;;;;;;;;;
2022/12/11 09:27:13;;;;;;;12.2;9.1;;;;;;;;;;;;;
2022/12/11 09:29:40;;;;;;;12.8;9.3;;;;;;;;;;;;;
2022/12/11 09:32:06;;;;;;;12.9;8.9;;;;;;;;;;;;;
2022/12/11 09:34:32;;;;;;;11;8.1;;;;;;;;;;;;;
2022/12/11 09:36:58;;;;;;;10.8;8;;;;;;;;;;;;;
2022/12/11 09:39:25;;;;;;;11.2;8;;;;;;;;;;;;;
2022/12/11 09:41:50;;;;;;;12.2;8.7;;;;;;;;;;;;;
2022/12/11 09:44:15;;;;;;;11;8.2;;;;;;;;;;;;;
2022/12/11 09:46:40;;;;;;;11.5;8.2;;;;;;;;;;;;;
2022/12/11 09:49:05;;;;;;;10.3;7.7;;;;;;;;;;;;;
2022/12/11 09:51:32;;;;;;;10.3;7.6;;;;;;;;;;;;;
2022/12/11 09:53:57;;;;;;;10.2;7.8;;;;;;;;;;;;;
2022/12/11 09:56:25;;;;;;;11.1;7.6;;;;;;;;;;;;;
2022/12/11 09:58:50;;;;;;;10;7.2;;;;;;;;;;;;;
2022/12/11 10:01:19;;;;;;;9.8;7.2;;;;;;;;;;;;;
2022/12/11 10:03:44;;;;;;;10.5;7.5;;;;;;;;;;;;;
2022/12/11 10:06:10;;;;;;;9.8;7;;;;;;;;;;;;;
2022/12/11 10:08:35;;;;;;;8.9;7;;;;;;;;;;;;;
2022/12/11 10:11:00;;;;;;;8.6;6.8;;;;;;;;;;;;;
2022/12/11 10:13:26;;;;;;;9.3;6.7;;;;;;;;;;;;;
2022/12/11 10:15:51;;;;;;;8.6;6.3;;;;;;;;;;;;;
2022/12/11 10:18:16;;;;;;;9;7;;;;;;;;;;;;;
2022/12/11 10:20:44;;;;;;;9.6;7.5;;;;;;;;;;;;;
2022/12/11 10:23:09;;;;;;;10.5;7.3;;;;;;;;;;;;;
2022/12/11 10:25:34;;;;;;;10.3;8.2;;;;;;;;;;;;;
2022/12/11 10:28:00;;;;;;;11.5;8.1;;;;;;;;;;;;;
2022/12/11 10:30:25;;;;;;;14.8;9.3;;;;;;;;;;;;;
2022/12/11 10:32:50;;;;;;;12.2;8.4;;;;;;;;;;;;;
2022/12/11 10:35:17;;;;;;;11.8;8.3;;;;;;;;;;;;;
2022/12/11 10:37:42;;;;;;;12;8.9;;;;;;;;;;;;;
2022/12/11 10:40:07;;;;;;;12.4;8.3;;;;;;;;;;;;;
2022/12/11 10:42:33;;;;;;;12.1;8.7;;;;;;;;;;;;;
2022/12/11 10:44:58;;;;;;;11.6;8.7;;;;;;;;;;;;;
2022/12/11 10:47:24;;;;;;;12.7;9.3;;;;;;;;;;;;;
2022/12/11 10:49:50;;;;;;;12.7;8.9;;;;;;;;;;;;;
2022/12/11 10:52:15;;;;;;;11.8;8.5;;;;;;;;;;;;;
2022/12/11 10:54:40;;;;;;;13.6;9.3;;;;;;;;;;;;;
2022/12/11 10:57:07;;;;;;;13.7;9.1;;;;;;;;;;;;;
2022/12/11 10:59:32;;;;;;;13.6;9.7;;;;;;;;;;;;;
2022/12/11 11:01:58;;;;;;;13.6;9.3;;;;;;;;;;;;;
2022/12/11 11:04:24;;;;;;;13.5;9.5;;;;;;;;;;;;;
2022/12/11 11:06:50;;;;;;;12.6;9.6;;;;;;;;;;;;;
2022/12/11 11:09:15;;;;;;;13.1;9.6;;;;;;;;;;;;;
2022/12/11 11:11:40;;;;;;;13.3;9.6;;;;;;;;;;;;;
2022/12/11 11:14:08;;;;;;;13.9;9.2;;;;;;;;;;;;;
2022/12/11 11:16:33;;;;;;;12.6;9.2;;;;;;;;;;;;;
2022/12/11 11:18:58;;;;;;;10.8;8.2;;;;;;;;;;;;;
2022/12/11 11:21:23;;;;;;;11.9;8.9;;;;;;;;;;;;;
2022/12/11 11:23:50;;;;;;;12.4;9;;;;;;;;;;;;;
2022/12/11 11:26:16;;;;;;;13.3;9.2;;;;;;;;;;;;;
2022/12/11 11:28:41;;;;;;;11.5;8.5;;;;;;;;;;;;;
2022/12/11 11:31:06;;;;;;;12.7;8.4;;;;;;;;;;;;;
2022/12/11 11:33:32;;;;;;;12.1;8.7;;;;;;;;;;;;;
2022/12/11 11:35:57;;;;;;;12.1;8.9;;;;;;;;;;;;;
2022/12/11 11:38:22;;;;;;;12.1;8.8;;;;;;;;;;;;;
2022/12/11 11:40:47;;;;;;;14.4;9.6;;;;;;;;;;;;;
2022/12/11 11:43:14;;;;;;;14;9.3;;;;;;;;;;;;;
2022/12/11 11:45:38;;;;;;;11.2;8.7;;;;;;;;;;;;;
2022/12/11 11:48:05;;;;;;;12.8;8.5;;;;;;;;;;;;;
2022/12/11 11:50:33;;;;;;;12.7;9;;;;;;;;;;;;;
2022/12/11 11:52:59;;;;;;;14.9;9.8;;;;;;;;;;;;;
2022/12/11 11:55:24;;;;;;;17.3;11.7;;;;;;;;;;;;;
2022/12/11 11:57:49;;;;;;;15.2;10.2;;;;;;;;;;;;;
2022/12/11 12:00:14;;;;;;;15.3;11.3;;;;;;;;;;;;;
2022/12/11 12:02:40;;;;;;;17.6;11.9;;;;;;;;;;;;;
2022/12/11 12:05:05;;;;;;;16.5;11.1;;;;;;;;;;;;;
2022/12/11 12:07:33;;;;;;;17.9;11.6;;;;;;;;;;;;;
2022/12/11 12:09:58;;;;;;;13.1;9.8;;;;;;;;;;;;;
2022/12/11 12:12:23;;;;;;;12.9;10;;;;;;;;;;;;;
2022/12/11 12:14:48;;;;;;;14.4;10.1;;;;;;;;;;;;;
2022/12/11 12:17:15;;;;;;;14.3;10.1;;;;;;;;;;;;;
2022/12/11 12:19:40;;;;;;;13.5;9.8;;;;;;;;;;;;;
2022/12/11 12:22:05;;;;;;;13.5;9.8;;;;;;;;;;;;;
2022/12/11 12:24:30;;;;;;;14.3;10;;;;;;;;;;;;;
2022/12/11 12:26:55;;;;;;;14.5;10.2;;;;;;;;;;;;;
2022/12/11 12:29:20;;;;;;;13.5;10.7;;;;;;;;;;;;;
2022/12/11 12:31:47;;;;;;;13.9;10;;;;;;;;;;;;;
2022/12/11 12:34:13;;;;;;;15.9;9.3;;;;;;;;;;;;;
2022/12/11 12:36:37;;;;;;;14.3;9.9;;;;;;;;;;;;;
2022/12/11 12:39:03;;;;;;;16;10.6;;;;;;;;;;;;;
2022/12/11 12:41:28;;;;;;;18.4;13.1;;;;;;;;;;;;;
2022/12/11 12:43:53;;;;;;;14.2;9.3;;;;;;;;;;;;;
2022/12/11 12:46:19;;;;;;;15.1;11;;;;;;;;;;;;;
2022/12/11 12:48:44;;;;;;;29.2;20.8;;;;;;;;;;;;;
2022/12/11 12:51:10;;;;;;;15.9;10.8;;;;;;;;;;;;;
2022/12/11 12:53:35;;;;;;;15.9;9.7;;;;;;;;;;;;;
2022/12/11 12:56:00;;;;;;;11.3;7.8;;;;;;;;;;;;;
2022/12/11 12:58:25;;;;;;;10.8;8.2;;;;;;;;;;;;;
2022/12/11 13:00:50;;;;;;;12.4;8.3;;;;;;;;;;;;;
2022/12/11 13:03:15;;;;;;;10.5;7.3;;;;;;;;;;;;;
2022/12/11 13:05:41;;;;;;;9.6;7;;;;;;;;;;;;;
2022/12/11 13:08:07;;;;;;;8.6;6.5;;;;;;;;;;;;;
2022/12/11 13:10:33;;;;;;;9.2;6.8;;;;;;;;;;;;;
2022/12/11 13:12:58;;;;;;;9.7;7.3;;;;;;;;;;;;;
2022/12/11 13:15:25;;;;;;;7.9;6;;;;;;;;;;;;;
2022/12/11 13:17:50;;;;;;;9.1;6.7;;;;;;;;;;;;;
2022/12/11 13:20:16;;;;;;;9;6.6;;;;;;;;;;;;;
2022/12/11 13:22:42;;;;;;;9.5;7.2;;;;;;;;;;;;;
2022/12/11 13:25:07;;;;;;;8.9;6.9;;;;;;;;;;;;;
2022/12/11 13:27:34;;;;;;;9.6;6.4;;;;;;;;;;;;;
2022/12/11 13:29:59;;;;;;;9.7;7;;;;;;;;;;;;;
2022/12/11 13:32:25;;;;;;;10.3;7.5;;;;;;;;;;;;;
2022/12/11 13:34:50;;;;;;;9.3;7;;;;;;;;;;;;;
2022/12/11 13:37:17;;;;;;;9;6.3;;;;;;;;;;;;;
2022/12/11 13:39:42;;;;;;;8.5;5.6;;;;;;;;;;;;;
2022/12/11 13:42:07;;;;;;;5.8;4.8;;;;;;;;;;;;;
2022/12/11 13:44:37;;;;;;;7;4.4;;;;;;;;;;;;;
2022/12/11 13:47:00;;;;;;;6.1;4.2;;;;;;;;;;;;;
2022/12/11 13:49:26;;;;;;;6;3.6;;;;;;;;;;;;;
2022/12/11 13:51:51;;;;;;;6.8;4.4;;;;;;;;;;;;;
2022/12/11 13:54:18;;;;;;;5.2;3.8;;;;;;;;;;;;;
2022/12/11 13:56:43;;;;;;;5.5;4.1;;;;;;;;;;;;;
2022/12/11 13:59:09;;;;;;;6.1;4.4;;;;;;;;;;;;;
2022/12/11 14:01:34;;;;;;;5.5;3.9;;;;;;;;;;;;;
2022/12/11 14:03:59;;;;;;;6.4;4.5;;;;;;;;;;;;;
2022/12/11 14:06:24;;;;;;;5.7;4.2;;;;;;;;;;;;;
2022/12/11 14:08:49;;;;;;;7.6;5;;;;;;;;;;;;;
2022/12/11 14:11:14;;;;;;;7.4;5.7;;;;;;;;;;;;;
2022/12/11 14:13:40;;;;;;;8.1;5.4;;;;;;;;;;;;;
2022/12/11 14:16:05;;;;;;;8;5.4;;;;;;;;;;;;;
2022/12/11 14:18:30;;;;;;;7.5;5.5;;;;;;;;;;;;;
2022/12/11 14:20:56;;;;;;;7.1;5.6;;;;;;;;;;;;;
2022/12/11 14:23:21;;;;;;;8.1;6;;;;;;;;;;;;;
2022/12/11 14:25:48;;;;;;;8.4;6.2;;;;;;;;;;;;;
2022/12/11 14:28:13;;;;;;;8.7;5.8;;;;;;;;;;;;;
2022/12/11 14:30:41;;;;;;;8.3;6.2;;;;;;;;;;;;;
2022/12/11 14:33:06;;;;;;;7.4;5.7;;;;;;;;;;;;;
2022/12/11 14:35:31;;;;;;;9;6;;;;;;;;;;;;;
2022/12/11 14:37:56;;;;;;;9.3;6.5;;;;;;;;;;;;;
2022/12/11 14:40:22;;;;;;;9.6;6.7;;;;;;;;;;;;;
2022/12/11 14:42:49;;;;;;;10.7;7.3;;;;;;;;;;;;;
2022/12/11 14:45:14;;;;;;;13.5;8.8;;;;;;;;;;;;;
2022/12/11 14:47:41;;;;;;;80.7;34.5;;;;;;;;;;;;;
2022/12/11 14:50:06;;;;;;;23.8;13;;;;;;;;;;;;;
2022/12/11 14:52:33;;;;;;;14.4;9.1;;;;;;;;;;;;;
2022/12/11 14:54:58;;;;;;;11.7;8.6;;;;;;;;;;;;;
2022/12/11 14:57:27;;;;;;;10.4;7.2;;;;;;;;;;;;;
2022/12/11 14:59:52;;;;;;;8.2;5.9;;;;;;;;;;;;;
2022/12/11 15:02:18;;;;;;;8.2;5.9;;;;;;;;;;;;;
2022/12/11 15:04:44;;;;;;;8.2;6.1;;;;;;;;;;;;;
2022/12/11 15:07:08;;;;;;;8.6;6.6;;;;;;;;;;;;;
2022/12/11 15:09:34;;;;;;;11.6;7.1;;;;;;;;;;;;;
2022/12/11 15:11:59;;;;;;;10.3;7.1;;;;;;;;;;;;;
2022/12/11 15:14:25;;;;;;;9.8;7;;;;;;;;;;;;;
2022/12/11 15:16:50;;;;;;;9.3;6.7;;;;;;;;;;;;;
2022/12/11 15:19:16;;;;;;;10.4;7.2;;;;;;;;;;;;;
2022/12/11 15:21:41;;;;;;;11.4;7.8;;;;;;;;;;;;;
2022/12/11 15:24:09;;;;;;;11.9;7.9;;;;;;;;;;;;;
2022/12/11 15:26:34;;;;;;;11.6;8.3;;;;;;;;;;;;;
2022/12/11 15:28:59;;;;;;;10.8;7.9;;;;;;;;;;;;;
2022/12/11 15:31:24;;;;;;;12.4;8.3;;;;;;;;;;;;;
2022/12/11 15:33:50;;;;;;;12.5;9.1;;;;;;;;;;;;;
2022/12/11 15:36:15;;;;;;;14.5;10.3;;;;;;;;;;;;;
2022/12/11 15:38:42;;;;;;;14.4;10.4;;;;;;;;;;;;;
2022/12/11 15:41:06;;;;;;;14.9;10.2;;;;;;;;;;;;;
2022/12/11 15:43:31;;;;;;;14.8;9.9;;;;;;;;;;;;;
2022/12/11 15:45:56;;;;;;;14.8;10.3;;;;;;;;;;;;;
2022/12/11 15:48:22;;;;;;;13.6;10.2;;;;;;;;;;;;;
2022/12/11 15:50:47;;;;;;;13.8;10;;;;;;;;;;;;;
2022/12/11 15:53:14;;;;;;;15.4;10.8;;;;;;;;;;;;;
2022/12/11 15:55:39;;;;;;;13.5;9.7;;;;;;;;;;;;;
2022/12/11 15:58:06;;;;;;;14.3;9.9;;;;;;;;;;;;;
2022/12/11 16:00:31;;;;;;;14.4;10.4;;;;;;;;;;;;;
2022/12/11 16:02:56;;;;;;;13.3;9.5;;;;;;;;;;;;;
2022/12/11 16:05:21;;;;;;;14.4;9.6;;;;;;;;;;;;;
2022/12/11 16:07:46;;;;;;;14.2;9.8;;;;;;;;;;;;;
2022/12/11 16:10:14;;;;;;;13.9;9.8;;;;;;;;;;;;;
2022/12/11 16:12:39;;;;;;;14.3;9.4;;;;;;;;;;;;;
2022/12/11 16:15:04;;;;;;;12.1;9.1;;;;;;;;;;;;;
2022/12/11 16:17:30;;;;;;;13.4;9.2;;;;;;;;;;;;;
2022/12/11 16:19:55;;;;;;;14.7;9.8;;;;;;;;;;;;;
2022/12/11 16:22:20;;;;;;;16.2;10.1;;;;;;;;;;;;;
2022/12/11 16:24:47;;;;;;;14.1;9.7;;;;;;;;;;;;;
2022/12/11 16:27:12;;;;;;;14;9.9;;;;;;;;;;;;;
2022/12/11 16:29:38;;;;;;;14.4;10.1;;;;;;;;;;;;;
2022/12/11 16:32:05;;;;;;;17.1;11;;;;;;;;;;;;;
2022/12/11 16:34:28;;;;;;;19.8;13.3;;;;;;;;;;;;;
2022/12/11 16:36:53;;;;;;;18.7;12.5;;;;;;;;;;;;;
2022/12/11 16:39:18;;;;;;;19.5;12.7;;;;;;;;;;;;;
2022/12/11 16:41:46;;;;;;;17.7;12.4;;;;;;;;;;;;;
2022/12/11 16:44:11;;;;;;;15.9;10.9;;;;;;;;;;;;;
2022/12/11 16:46:36;;;;;;;17.2;10.7;;;;;;;;;;;;;
2022/12/11 16:49:01;;;;;;;19.7;13;;;;;;;;;;;;;
2022/12/11 16:51:27;;;;;;;15.9;11.1;;;;;;;;;;;;;
2022/12/11 16:53:52;;;;;;;15.6;10.7;;;;;;;;;;;;;
2022/12/11 16:56:19;;;;;;;16;11.4;;;;;;;;;;;;;
2022/12/11 16:58:46;;;;;;;16.8;11.1;;;;;;;;;;;;;
2022/12/11 17:01:13;;;;;;;19;13.1;;;;;;;;;;;;;
2022/12/11 17:03:38;;;;;;;20.5;14;;;;;;;;;;;;;
2022/12/11 17:06:05;;;;;;;28.3;19.7;;;;;;;;;;;;;
2022/12/11 17:08:30;;;;;;;29.5;19.8;;;;;;;;;;;;;
2022/12/11 17:10:57;;;;;;;32.2;21.4;;;;;;;;;;;;;
2022/12/11 17:13:22;;;;;;;26.2;17.6;;;;;;;;;;;;;
2022/12/11 17:15:50;;;;;;;17.2;11.4;;;;;;;;;;;;;
2022/12/11 17:18:15;;;;;;;20.7;13.8;;;;;;;;;;;;;
2022/12/11 17:20:40;;;;;;;20.7;14.1;;;;;;;;;;;;;
2022/12/11 17:23:05;;;;;;;22.4;14.3;;;;;;;;;;;;;
2022/12/11 17:25:31;;;;;;;23.1;15;;;;;;;;;;;;;
2022/12/11 17:27:57;;;;;;;23.4;15.3;;;;;;;;;;;;;
2022/12/11 17:30:22;;;;;;;21.1;14.3;;;;;;;;;;;;;
2022/12/11 17:32:47;;;;;;;18;11.7;;;;;;;;;;;;;
2022/12/11 17:35:12;;;;;;;16.4;10.9;;;;;;;;;;;;;
2022/12/11 17:37:38;;;;;;;15.3;9.9;;;;;;;;;;;;;
2022/12/11 17:40:04;;;;;;;19.7;12.1;;;;;;;;;;;;;
2022/12/11 17:42:33;;;;;;;15.6;11.3;;;;;;;;;;;;;
2022/12/11 17:45:02;;;;;;;18;11.3;;;;;;;;;;;;;
2022/12/11 17:47:27;;;;;;;15.5;10.4;;;;;;;;;;;;;
2022/12/11 17:49:52;;;;;;;12.6;9;;;;;;;;;;;;;
2022/12/11 17:52:18;;;;;;;16.7;10.3;;;;;;;;;;;;;
2022/12/11 17:54:45;;;;;;;18.6;13.3;;;;;;;;;;;;;
2022/12/11 17:57:10;;;;;;;18.6;12.9;;;;;;;;;;;;;
2022/12/11 17:59:36;;;;;;;18.3;12.5;;;;;;;;;;;;;
2022/12/11 18:02:01;;;;;;;15.1;10.8;;;;;;;;;;;;;
2022/12/11 18:04:28;;;;;;;25;17.2;;;;;;;;;;;;;
2022/12/11 18:06:53;;;;;;;24.1;16.7;;;;;;;;;;;;;
2022/12/11 18:09:20;;;;;;;23.6;16.6;;;;;;;;;;;;;
2022/12/11 18:11:45;;;;;;;16.9;12;;;;;;;;;;;;;
2022/12/11 18:14:11;;;;;;;19;13.3;;;;;;;;;;;;;
2022/12/11 18:16:36;;;;;;;18.2;12.7;;;;;;;;;;;;;
2022/12/11 18:19:01;;;;;;;21.6;14.4;;;;;;;;;;;;;
2022/12/11 18:21:26;;;;;;;30.7;19.4;;;;;;;;;;;;;
2022/12/11 18:23:53;;;;;;;26.6;16.9;;;;;;;;;;;;;
2022/12/11 18:26:18;;;;;;;22.8;15.4;;;;;;;;;;;;;
2022/12/11 18:28:44;;;;;;;17.7;13.1;;;;;;;;;;;;;
2022/12/11 18:31:09;;;;;;;20.9;13.3;;;;;;;;;;;;;
2022/12/11 18:33:35;;;;;;;20.9;14;;;;;;;;;;;;;
2022/12/11 18:36:00;;;;;;;20.8;13.8;;;;;;;;;;;;;
2022/12/11 18:38:27;;;;;;;19;13;;;;;;;;;;;;;
2022/12/11 18:40:51;;;;;;;18.8;13.2;;;;;;;;;;;;;
2022/12/11 18:43:16;;;;;;;24.1;14.8;;;;;;;;;;;;;
2022/12/11 18:45:43;;;;;;;19.8;13.3;;;;;;;;;;;;;
2022/12/11 18:48:08;;;;;;;22.2;14.9;;;;;;;;;;;;;
2022/12/11 18:50:33;;;;;;;17.2;11.9;;;;;;;;;;;;;
2022/12/11 18:52:59;;;;;;;17.7;12.1;;;;;;;;;;;;;
2022/12/11 18:55:24;;;;;;;20.5;13.2;;;;;;;;;;;;;
2022/12/11 18:57:51;;;;;;;21;12.9;;;;;;;;;;;;;